Flight Track Log - Related Links

Times and Time Zones

All times are in EST time to prevent confusion due to time zone crossing. See the EJA922 flight status page for this flight to view local times or setup timezone preferences in your user account.

Time Position Orientation Groundspeed Altitude Reporting Facility
EST Latitude Longitude Course Direction KTS MPH feet Rate Location/Type
Fri 01:15:02 PM 42.9333 -87.9000 216° Southwest 169 194 1,300  Level KMKE
Fri 01:15:32 PM 42.9167 -87.9167 216° Southwest 202 232 2,600 3,355 Climbing KMKE
Fri 01:16:35 PM 42.8611 -87.9672 214° Southwest 231 266 6,500 3,387 Climbing Chicago Center
Fri 01:17:36 PM 42.8122 -88.0133 215° Southwest 216 249 9,600 2,634 Climbing Chicago Center
Fri 01:18:38 PM 42.7511 -88.0519 205° Southwest 250 288 11,900 2,613 Climbing Chicago Center
Fri 01:19:40 PM 42.6703 -88.0331 170° South 296 341 15,000 2,488 Climbing Chicago Center
Fri 01:20:41 PM 42.5803 -88.0244 176° South 320 368 17,000 1,951 Climbing Chicago Center
Fri 01:21:43 PM 42.4775 -88.0183 177° South 362 417 19,000 1,887 Climbing Chicago Center
Fri 01:22:45 PM 42.3686 -88.0119 178° South 386 444 20,900 2,049 Climbing Chicago Center
Fri 01:23:46 PM 42.2331 -88.0042 178° South 401 461 23,200 2,000 Climbing Chicago Center
Fri 01:24:48 PM 42.1233 -87.9972 177° South 398 458 25,000 1,742 Climbing Chicago Center
Fri 01:25:50 PM 42.0147 -87.9906 177° South 391 450 26,800 1,610 Climbing Chicago Center
Fri 01:26:51 PM 41.9061 -87.9839 177° South 391 450 28,300 1,268 Climbing Chicago Center
Fri 01:27:53 PM 41.7939 -87.9678 174° South 403 464 29,400 1,065 Climbing Chicago Center
Fri 01:28:55 PM 41.6789 -87.9319 167° South 421 484 30,500 1,065 Climbing Chicago Center
Fri 01:29:57 PM 41.5639 -87.8939 166° South 422 486 31,600 1,073 Climbing Chicago Center
Fri 01:30:58 PM 41.4456 -87.8556 166° South 427 491 32,700 1,073 Climbing Chicago Center
Fri 01:32:00 PM 41.3278 -87.8358 173° South 420 483 33,800 1,113 Climbing Chicago Center
Fri 01:33:02 PM 41.1892 -87.8319 179° South 413 475 35,000 1,073 Climbing Chicago Center
Fri 01:34:03 PM 41.0708 -87.8297 179° South 422 486 36,000 976 Climbing Chicago Center
Fri 01:35:05 PM 40.9519 -87.8267 179° South 427 491 37,000 968 Climbing Chicago Center
Fri 01:36:07 PM 40.8303 -87.8233 179° South 437 503 38,000 968 Climbing Chicago Center
Fri 01:37:09 PM 40.7058 -87.8206 179° South 446 513 39,000 976 Climbing Chicago Center
Fri 01:38:10 PM 40.5794 -87.7972 172° South 461 531 40,000 976 Climbing Chicago Center
Fri 01:39:12 PM 40.4525 -87.7633 169° South 466 536 41,000 484 Climbing Chicago Center
Fri 01:40:14 PM 40.2992 -87.7219 168° South 470 541 41,000  Level Chicago Center
Fri 01:41:16 PM 40.1747 -87.6897 169° South 480 552 41,000  Level Chicago Center
Fri 01:42:17 PM 40.0433 -87.6544 168° South 483 556 41,000  Level Chicago Center
Fri 01:42:47 PM 39.9622 -87.6350 170° South 481 554 41,000  Level Indianapolis Center
Fri 01:43:19 PM 39.9131 -87.6211 168° South 482 555 41,000  Level Chicago Center
Fri 01:43:49 PM 39.8314 -87.6011 169° South 482 555 41,000  Level Indianapolis Center
Fri 01:44:51 PM 39.7019 -87.5672 169° South 480 552 41,000  Level Indianapolis Center
Fri 01:45:52 PM 39.5708 -87.5333 169° South 483 556 41,000  Level Indianapolis Center
Fri 01:46:54 PM 39.4411 -87.5011 169° South 480 552 41,000  Level Indianapolis Center
Fri 01:47:56 PM 39.3131 -87.4672 168° South 474 545 41,000  Level Indianapolis Center
Fri 01:48:57 PM 39.1583 -87.4283 169° South 475 547 41,000  Level Indianapolis Center
Fri 01:49:59 PM 39.0289 -87.3953 169° South 478 550 41,000  Level Indianapolis Center
Fri 01:51:01 PM 38.8981 -87.3619 169° South 478 550 41,000  Level Indianapolis Center
Fri 01:52:02 PM 38.7672 -87.3275 168° South 478 550 41,000  Level Indianapolis Center
Fri 01:53:04 PM 38.6383 -87.2953 169° South 473 544 41,000  Level Indianapolis Center
Fri 01:54:06 PM 38.5114 -87.2636 169° South 467 537 41,000  Level Indianapolis Center
Fri 01:55:07 PM 38.3839 -87.2319 169° South 469 540 41,000  Level Indianapolis Center
Fri 01:56:09 PM 38.2419 -87.2000 170° South 473 544 41,000  Level Indianapolis Center
Fri 01:57:10 PM 38.1017 -87.1614 168° South 483 556 41,000  Level Indianapolis Center
Fri 01:58:12 PM 37.9700 -87.1294 169° South 484 557 41,000  Level Indianapolis Center
Fri 01:59:14 PM 37.8372 -87.0967 169° South 485 558 41,000  Level Indianapolis Center
Fri 02:00:15 PM 37.7042 -87.0636 169° South 486 559 41,000  Level Indianapolis Center
Fri 02:01:17 PM 37.5708 -87.0322 169° South 486 559 41,000  Level Indianapolis Center
Fri 02:02:19 PM 37.4192 -86.9933 168° South 484 557 41,000  Level Indianapolis Center
Fri 02:03:20 PM 37.2847 -86.9619 169° South 485 558 41,000  Level Indianapolis Center
Fri 02:04:22 PM 37.1525 -86.9294 169° South 479 551 41,000  Level Indianapolis Center
Fri 02:05:23 PM 37.0203 -86.8969 169° South 480 552 41,000  Level Indianapolis Center
Fri 02:06:25 PM 36.8875 -86.8647 169° South 480 552 41,000  Level Indianapolis Center
Fri 02:07:41 PM 36.7100 -86.8208 169° South 481 554 41,000  Level Memphis Center
Fri 02:08:43 PM 36.5758 -86.7883 169° South 483 556 41,000  Level Memphis Center
Fri 02:09:44 PM 36.4411 -86.7556 169° South 483 556 41,000  Level Memphis Center
Fri 02:10:46 PM 36.3017 -86.7222 169° South 487 560 41,000  Level Memphis Center
Fri 02:11:48 PM 36.1644 -86.6908 170° South 489 563 41,000  Level Memphis Center
Fri 02:12:50 PM 36.0319 -86.6339 161° South 496 571 41,000  Level Memphis Center
Fri 02:13:51 PM 35.8992 -86.5675 158° South 507 583 41,000  Level Memphis Center
Fri 02:14:53 PM 35.7703 -86.5033 158° South 499 574 41,000  Level Memphis Center
Fri 02:15:55 PM 35.6383 -86.4389 158° South 502 578 41,000  Level Memphis Center
Fri 02:16:57 PM 35.5078 -86.3742 158° South 501 577 41,000  Level Memphis Center
Fri 02:17:59 PM 35.3767 -86.3103 158° South 502 578 41,000  Level Memphis Center
Fri 02:19:00 PM 35.2231 -86.2356 158° South 503 579 41,000  Level Memphis Center
Fri 02:20:02 PM 35.0914 -86.1711 158° South 503 579 41,000  Level Memphis Center
Fri 02:21:04 PM 34.9611 -86.1083 158° South 503 579 41,000  Level Memphis Center
Fri 02:22:06 PM 34.8297 -86.0444 158° South 506 582 41,000  Level Memphis Center
Fri 02:23:15 PM 34.6869 -85.9739 158° South 509 586 41,000  Level Atlanta Center
Fri 02:24:15 PM 34.5544 -85.9103 158° South 509 586 41,000  Level Atlanta Center
Fri 02:25:15 PM 34.4197 -85.8467 159° South 509 586 41,000  Level Atlanta Center
Fri 02:26:15 PM 34.2767 -85.7808 159° South 504 580 41,000  Level Atlanta Center
Fri 02:27:15 PM 34.1458 -85.7206 159° South 509 586 41,000  Level Atlanta Center
Fri 02:28:15 PM 34.0153 -85.6578 158° South 509 586 41,000  Level Atlanta Center
Fri 02:29:15 PM 33.8950 -85.6056 160° South 509 586 41,000  Level Atlanta Center
Fri 02:30:15 PM 33.7642 -85.5431 158° South 511 588 41,000  Level Atlanta Center
Fri 02:31:15 PM 33.6294 -85.4783 158° South 511 588 41,000  Level Atlanta Center
Fri 02:32:15 PM 33.4964 -85.4189 160° South 511 588 41,000  Level Atlanta Center
Fri 02:33:15 PM 33.3594 -85.3569 159° South 511 588 41,000  Level Atlanta Center
Fri 02:34:15 PM 33.2306 -85.2953 158° South 516 594 41,000  Level Atlanta Center
Fri 02:35:15 PM 33.0914 -85.2339 160° South 525 604 41,000  Level Atlanta Center
Fri 02:36:15 PM 32.9542 -85.1753 160° South 525 604 41,000  Level Atlanta Center
Fri 02:37:15 PM 32.8167 -85.1339 166° South 507 583 41,000  Level Atlanta Center
Fri 02:38:15 PM 32.6772 -85.0803 162° South 513 590 41,000  Level Atlanta Center
Fri 02:39:15 PM 32.5378 -85.0317 164° South 513 590 41,000  Level Atlanta Center
Fri 02:40:15 PM 32.4067 -84.9861 164° South 513 590 41,000  Level Atlanta Center
Fri 02:41:15 PM 32.2672 -84.9403 164° South 513 590 41,000  Level Atlanta Center
Fri 02:43:09 PM 31.9989 -84.8500 164° South 506 582 41,000  Level Jacksonville Center
Fri 02:44:09 PM 31.8786 -84.8131 165° South 506 582 41,000  Level Jacksonville Center
Fri 02:45:09 PM 31.7475 -84.7689 164° South 501 577 41,000  Level Jacksonville Center
Fri 02:46:09 PM 31.6147 -84.7247 164° South 501 577 41,000  Level Jacksonville Center
Fri 02:47:09 PM 31.4817 -84.6806 164° South 495 570 41,000  Level Jacksonville Center
Fri 02:48:09 PM 31.3342 -84.6317 164° South 490 564 41,000  Level Jacksonville Center
Fri 02:49:09 PM 31.1989 -84.5878 164° South 490 564 41,000  Level Jacksonville Center
Fri 02:50:09 PM 31.0658 -84.5442 164° South 490 564 41,000  Level Jacksonville Center
Fri 02:51:09 PM 30.9328 -84.4983 164° South 490 564 41,000  Level Jacksonville Center
Fri 02:52:09 PM 30.8022 -84.4308 156° South 496 571 41,000  Level Jacksonville Center
Fri 02:53:09 PM 30.6781 -84.3322 146° Southeast 508 585 41,000  Level Jacksonville Center
Fri 02:54:09 PM 30.5539 -84.2339 146° Southeast 533 613 41,000  Level Jacksonville Center
Fri 02:55:09 PM 30.4317 -84.1381 146° Southeast 539 620 41,000  Level Jacksonville Center
Fri 02:56:09 PM 30.3053 -84.0378 146° Southeast 545 627 41,000  Level Jacksonville Center
Fri 02:57:09 PM 30.1828 -83.9403 145° Southeast 545 627 41,000  Level Jacksonville Center
Fri 02:58:09 PM 30.0564 -83.8453 147° Southeast 545 627 41,000 -50 Level Jacksonville Center
Fri 02:59:09 PM 29.9317 -83.7458 145° Southeast 545 627 40,900  Descending Jacksonville Center
Fri 03:00:09 PM 29.8050 -83.6514 147° Southeast 545 627 41,000 50 Climbing Jacksonville Center
Fri 03:01:09 PM 29.6803 -83.5572 147° Southeast 545 627 41,000  Level Jacksonville Center
Fri 03:02:09 PM 29.5533 -83.4583 146° Southeast 545 627 41,000  Level Jacksonville Center
Fri 03:03:09 PM 29.4283 -83.3622 146° Southeast 545 627 41,000  Level Jacksonville Center
Fri 03:04:09 PM 29.3036 -83.2664 146° Southeast 545 627 41,000  Level Jacksonville Center
Fri 03:05:09 PM 29.1786 -83.1686 146° Southeast 545 627 41,000  Level Jacksonville Center
Fri 03:06:09 PM 29.0514 -83.0731 147° Southeast 540 621 41,000  Level Jacksonville Center
Fri 03:07:09 PM 28.9242 -82.9781 147° Southeast 545 627 41,000  Level Jacksonville Center
Fri 03:08:09 PM 28.7989 -82.8856 147° Southeast 545 627 41,000  Level Jacksonville Center
Fri 03:09:09 PM 28.7008 -82.8097 146° Southeast 545 627 41,000  Level Jacksonville Center
Fri 03:10:09 PM 28.5650 -82.7058 146° Southeast 545 627 41,000  Level Jacksonville Center
Fri 03:11:09 PM 28.4375 -82.6117 147° Southeast 545 627 41,000 -100 Level Jacksonville Center
Fri 03:12:09 PM 28.3122 -82.5178 147° Southeast 545 627 40,800 -1,875 Descending Jacksonville Center
Fri 03:14:21 PM 28.0361 -82.3183 147° Southeast 542 624 35,000 -1,813 Descending Miami Center
Fri 03:15:21 PM 27.9067 -82.2675 161° South 504 580 35,000  Level Miami Center
Fri 03:16:21 PM 27.7667 -82.2161 162° South 510 587 35,000 -100 Level Miami Center
Fri 03:17:21 PM 27.6164 -82.1622 162° South 516 594 34,800 -1,300 Descending Miami Center
Fri 03:18:21 PM 27.4867 -82.1164 163° South 505 581 32,400 -2,450 Descending Miami Center
Fri 03:19:21 PM 27.3547 -82.0708 163° South 500 575 29,900 -2,550 Descending Miami Center
Fri 03:20:21 PM 27.2353 -82.0303 163° South 493 567 27,300 -2,550 Descending Miami Center
Fri 03:21:21 PM 27.1053 -81.9872 164° South 493 567 24,800 -2,050 Descending Miami Center
Fri 03:22:21 PM 26.9758 -81.9303 159° South 471 542 23,200 -1,900 Descending Miami Center
Fri 03:23:21 PM 26.8742 -81.8467 144° Southeast 444 511 21,000 -2,100 Descending Miami Center
Fri 03:24:21 PM 26.7769 -81.7636 143° Southeast 449 517 19,000 -1,000 Descending Miami Center
Fri 03:25:21 PM 26.7053 -81.6536 126° Southeast 437 503 19,000  Level Miami Center
Fri 03:26:21 PM 26.7228 -81.5056 82° East 410 472 19,000 -1,000 Level Miami Center
Fri 03:27:21 PM 26.7500 -81.3717 77° East 429 494 17,000 -2,500 Descending Miami Center
Fri 03:28:21 PM 26.7811 -81.2358 76° East 443 510 14,000 -3,000 Descending Miami Center
Fri 03:29:21 PM 26.8097 -81.1181 75° East 416 479 11,000 -2,050 Descending Miami Center
Fri 03:30:21 PM 26.8253 -81.0186 80° East 379 436 9,900 -550 Descending Miami Center
Fri 03:31:21 PM 26.8367 -80.9028 84° East 346 398 9,900  Level Miami Center
Fri 03:32:21 PM 26.8269 -80.8092 97° East 314 361 9,900  Level Miami Center
Fri 03:33:21 PM 26.8042 -80.7247 107° East 293 337 9,900  Level Miami Center
Fri 03:34:21 PM 26.8453 -80.6656 52° Northeast 247 284 9,900 -500 Level Miami Center
Fri 03:35:21 PM 26.9056 -80.6000 44° Northeast 254 292 8,900 -1,500 Descending Miami Center
Fri 03:36:21 PM 26.9611 -80.5411 43° Northeast 267 307 6,900 -2,000 Descending Miami Center
Fri 03:37:21 PM 27.0169 -80.4825 43° Northeast 275 316 4,900 -2,000 Descending Miami Center
Fri 03:38:21 PM 27.0664 -80.4325 42° Northeast 275 316 2,900 -1,250 Descending Miami Center
Fri 03:39:21 PM 27.1156 -80.3803 43° Northeast 259 298 2,400 -500 Descending Miami Center
Fri 03:41:00 PM 27.1667 -80.2167 North  Level FlightAware Approximate
Fri 03:48:00 PM 27.1817 -80.2213 North  Level Estimated
Fri 03:49:00 PM 27.1817 -80.2213 North  Level Estimated
Fri 03:50:00 PM 27.1817 -80.2213 North  Level Estimated
Fri 03:51:00 PM 27.1817 -80.2213 North  Level Estimated

Login

Don't have an account? Register now (free) for customized features, flight alerts, and more!